sensor_id;sensor_type;location;lat;lon;timestamp;P1;durP1;ratioP1;P2;durP2;ratioP2
20972;SDS011;10645;52.370;13.314;2023-03-01T00:01:32;5.37;;;4.57;;
20972;SDS011;10645;52.370;13.314;2023-03-01T00:03:58;4.40;;;4.00;;
20972;SDS011;10645;52.370;13.314;2023-03-01T00:06:25;9.57;;;2.53;;
20972;SDS011;10645;52.370;13.314;2023-03-01T00:08:52;2.13;;;2.07;;
20972;SDS011;10645;52.370;13.314;2023-03-01T00:11:19;4.70;;;2.90;;
20972;SDS011;10645;52.370;13.314;2023-03-01T00:13:51;2.07;;;1.97;;
20972;SDS011;10645;52.370;13.314;2023-03-01T00:16:21;1.80;;;1.73;;
20972;SDS011;10645;52.370;13.314;2023-03-01T00:18:49;2.17;;;2.07;;
20972;SDS011;10645;52.370;13.314;2023-03-01T00:21:16;3.23;;;3.07;;
20972;SDS011;10645;52.370;13.314;2023-03-01T00:23:42;2.00;;;1.90;;
20972;SDS011;10645;52.370;13.314;2023-03-01T00:26:10;1.87;;;1.77;;
20972;SDS011;10645;52.370;13.314;2023-03-01T00:28:40;4.97;;;4.40;;
20972;SDS011;10645;52.370;13.314;2023-03-01T00:31:09;5.50;;;3.60;;
20972;SDS011;10645;52.370;13.314;2023-03-01T00:33:40;2.20;;;1.97;;
20972;SDS011;10645;52.370;13.314;2023-03-01T00:36:07;3.30;;;2.30;;
20972;SDS011;10645;52.370;13.314;2023-03-01T00:38:41;3.33;;;3.13;;
20972;SDS011;10645;52.370;13.314;2023-03-01T00:41:10;2.67;;;2.50;;
20972;SDS011;10645;52.370;13.314;2023-03-01T00:43:38;3.53;;;3.33;;
20972;SDS011;10645;52.370;13.314;2023-03-01T00:46:06;4.10;;;3.30;;
20972;SDS011;10645;52.370;13.314;2023-03-01T00:48:34;3.17;;;2.97;;
20972;SDS011;10645;52.370;13.314;2023-03-01T00:51:07;1.33;;;1.23;;
20972;SDS011;10645;52.370;13.314;2023-03-01T00:53:36;2.97;;;2.77;;
20972;SDS011;10645;52.370;13.314;2023-03-01T00:56:03;1.70;;;1.67;;
20972;SDS011;10645;52.370;13.314;2023-03-01T00:58:30;4.10;;;2.87;;
20972;SDS011;10645;52.370;13.314;2023-03-01T01:00:57;5.17;;;3.97;;
20972;SDS011;10645;52.370;13.314;2023-03-01T01:03:23;12.90;;;3.13;;
20972;SDS011;10645;52.370;13.314;2023-03-01T01:05:51;8.13;;;4.20;;
20972;SDS011;10645;52.370;13.314;2023-03-01T01:08:17;14.50;;;4.07;;
20972;SDS011;10645;52.370;13.314;2023-03-01T01:10:45;4.47;;;4.17;;
20972;SDS011;10645;52.370;13.314;2023-03-01T01:13:12;3.13;;;2.93;;
20972;SDS011;10645;52.370;13.314;2023-03-01T01:15:38;3.77;;;3.57;;
20972;SDS011;10645;52.370;13.314;2023-03-01T01:18:05;5.13;;;4.83;;
20972;SDS011;10645;52.370;13.314;2023-03-01T01:20:32;2.53;;;2.07;;
20972;SDS011;10645;52.370;13.314;2023-03-01T01:22:58;3.33;;;3.03;;
20972;SDS011;10645;52.370;13.314;2023-03-01T01:25:24;4.30;;;3.30;;
20972;SDS011;10645;52.370;13.314;2023-03-01T01:27:50;3.87;;;3.57;;
20972;SDS011;10645;52.370;13.314;2023-03-01T01:30:17;2.10;;;2.00;;
20972;SDS011;10645;52.370;13.314;2023-03-01T01:32:43;6.33;;;3.93;;
20972;SDS011;10645;52.370;13.314;2023-03-01T01:35:09;2.47;;;2.27;;
20972;SDS011;10645;52.370;13.314;2023-03-01T01:37:35;5.20;;;4.77;;
20972;SDS011;10645;52.370;13.314;2023-03-01T01:40:02;3.23;;;3.03;;
20972;SDS011;10645;52.370;13.314;2023-03-01T01:42:31;5.07;;;4.77;;
20972;SDS011;10645;52.370;13.314;2023-03-01T01:47:49;2.57;;;2.47;;
20972;SDS011;10645;52.370;13.314;2023-03-01T01:50:16;2.87;;;2.67;;
20972;SDS011;10645;52.370;13.314;2023-03-01T01:52:44;3.90;;;3.33;;
20972;SDS011;10645;52.370;13.314;2023-03-01T01:55:14;2.00;;;1.90;;
20972;SDS011;10645;52.370;13.314;2023-03-01T01:57:47;5.43;;;5.13;;
20972;SDS011;10645;52.370;13.314;2023-03-01T02:00:18;2.13;;;2.03;;
20972;SDS011;10645;52.370;13.314;2023-03-01T02:02:50;3.07;;;2.97;;
20972;SDS011;10645;52.370;13.314;2023-03-01T02:05:42;2.10;;;1.97;;
20972;SDS011;10645;52.370;13.314;2023-03-01T02:08:25;1.13;;;1.13;;
20972;SDS011;10645;52.370;13.314;2023-03-01T02:10:55;1.33;;;1.13;;
20972;SDS011;10645;52.370;13.314;2023-03-01T02:13:22;3.30;;;2.30;;
20972;SDS011;10645;52.370;13.314;2023-03-01T02:15:49;6.07;;;3.10;;
20972;SDS011;10645;52.370;13.314;2023-03-01T02:18:16;1.80;;;1.70;;
20972;SDS011;10645;52.370;13.314;2023-03-01T02:21:00;2.13;;;2.03;;
20972;SDS011;10645;52.370;13.314;2023-03-01T02:23:46;7.33;;;3.47;;
20972;SDS011;10645;52.370;13.314;2023-03-01T02:26:20;2.27;;;2.10;;
20972;SDS011;10645;52.370;13.314;2023-03-01T02:29:02;8.20;;;4.87;;
20972;SDS011;10645;52.370;13.314;2023-03-01T02:31:31;3.37;;;3.17;;
20972;SDS011;10645;52.370;13.314;2023-03-01T02:39:14;1.23;;;1.23;;
20972;SDS011;10645;52.370;13.314;2023-03-01T02:41:46;3.93;;;3.63;;
20972;SDS011;10645;52.370;13.314;2023-03-01T02:44:14;3.97;;;3.67;;
20972;SDS011;10645;52.370;13.314;2023-03-01T02:46:42;3.17;;;2.97;;
20972;SDS011;10645;52.370;13.314;2023-03-01T02:49:21;2.80;;;2.57;;
20972;SDS011;10645;52.370;13.314;2023-03-01T02:57:04;0.93;;;0.93;;
20972;SDS011;10645;52.370;13.314;2023-03-01T02:59:32;5.67;;;4.23;;
20972;SDS011;10645;52.370;13.314;2023-03-01T03:02:06;3.30;;;3.10;;
20972;SDS011;10645;52.370;13.314;2023-03-01T03:04:33;2.00;;;1.90;;
20972;SDS011;10645;52.370;13.314;2023-03-01T03:06:59;2.97;;;1.80;;
20972;SDS011;10645;52.370;13.314;2023-03-01T03:09:25;2.07;;;1.97;;
20972;SDS011;10645;52.370;13.314;2023-03-01T03:11:51;4.57;;;2.73;;
20972;SDS011;10645;52.370;13.314;2023-03-01T03:14:18;2.97;;;2.77;;
20972;SDS011;10645;52.370;13.314;2023-03-01T03:16:47;1.77;;;1.73;;
20972;SDS011;10645;52.370;13.314;2023-03-01T03:19:15;2.70;;;2.60;;
20972;SDS011;10645;52.370;13.314;2023-03-01T03:21:44;6.37;;;5.13;;
20972;SDS011;10645;52.370;13.314;2023-03-01T03:24:10;3.60;;;3.30;;
20972;SDS011;10645;52.370;13.314;2023-03-01T03:26:36;2.80;;;2.67;;
20972;SDS011;10645;52.370;13.314;2023-03-01T03:29:02;2.17;;;2.10;;
20972;SDS011;10645;52.370;13.314;2023-03-01T03:31:28;6.57;;;3.67;;
20972;SDS011;10645;52.370;13.314;2023-03-01T03:33:54;2.10;;;2.00;;
20972;SDS011;10645;52.370;13.314;2023-03-01T03:36:22;1.33;;;1.27;;
20972;SDS011;10645;52.370;13.314;2023-03-01T03:38:50;3.20;;;3.00;;
20972;SDS011;10645;52.370;13.314;2023-03-01T03:41:16;3.00;;;2.80;;
20972;SDS011;10645;52.370;13.314;2023-03-01T03:43:42;2.07;;;1.93;;
20972;SDS011;10645;52.370;13.314;2023-03-01T03:46:10;4.57;;;2.53;;
20972;SDS011;10645;52.370;13.314;2023-03-01T03:48:38;1.50;;;1.40;;
20972;SDS011;10645;52.370;13.314;2023-03-01T03:51:06;2.87;;;2.67;;
20972;SDS011;10645;52.370;13.314;2023-03-01T03:53:35;3.90;;;2.40;;
20972;SDS011;10645;52.370;13.314;2023-03-01T03:56:01;3.90;;;3.60;;
20972;SDS011;10645;52.370;13.314;2023-03-01T03:58:27;3.33;;;3.13;;
20972;SDS011;10645;52.370;13.314;2023-03-01T04:00:54;2.53;;;2.43;;
20972;SDS011;10645;52.370;13.314;2023-03-01T04:03:23;4.70;;;4.33;;
20972;SDS011;10645;52.370;13.314;2023-03-01T04:05:51;3.57;;;3.27;;
20972;SDS011;10645;52.370;13.314;2023-03-01T04:08:18;2.20;;;2.10;;
20972;SDS011;10645;52.370;13.314;2023-03-01T04:10:47;7.57;;;3.87;;
20972;SDS011;10645;52.370;13.314;2023-03-01T04:13:16;1.93;;;1.83;;
20972;SDS011;10645;52.370;13.314;2023-03-01T04:15:48;1.37;;;1.37;;
20972;SDS011;10645;52.370;13.314;2023-03-01T04:18:16;3.40;;;2.57;;
20972;SDS011;10645;52.370;13.314;2023-03-01T04:20:44;1.07;;;1.07;;
20972;SDS011;10645;52.370;13.314;2023-03-01T04:23:17;2.97;;;2.77;;
20972;SDS011;10645;52.370;13.314;2023-03-01T04:25:51;3.53;;;3.07;;
20972;SDS011;10645;52.370;13.314;2023-03-01T04:28:23;1.90;;;1.80;;
20972;SDS011;10645;52.370;13.314;2023-03-01T04:31:02;3.40;;;1.13;;
20972;SDS011;10645;52.370;13.314;2023-03-01T04:33:39;3.20;;;2.57;;
20972;SDS011;10645;52.370;13.314;2023-03-01T04:36:07;0.90;;;0.90;;
20972;SDS011;10645;52.370;13.314;2023-03-01T04:38:34;1.40;;;1.33;;
20972;SDS011;10645;52.370;13.314;2023-03-01T04:41:03;0.93;;;0.93;;
20972;SDS011;10645;52.370;13.314;2023-03-01T04:43:31;2.77;;;2.60;;
20972;SDS011;10645;52.370;13.314;2023-03-01T04:46:07;2.57;;;2.40;;
20972;SDS011;10645;52.370;13.314;2023-03-01T04:48:35;2.27;;;2.17;;
20972;SDS011;10645;52.370;13.314;2023-03-01T04:51:02;2.73;;;2.63;;
20972;SDS011;10645;52.370;13.314;2023-03-01T04:53:29;19.67;;;15.17;;
20972;SDS011;10645;52.370;13.314;2023-03-01T04:55:55;33.63;;;27.83;;
20972;SDS011;10645;52.370;13.314;2023-03-01T04:58:23;48.00;;;29.27;;
20972;SDS011;10645;52.370;13.314;2023-03-01T05:00:50;20.70;;;13.33;;
20972;SDS011;10645;52.370;13.314;2023-03-01T05:03:16;7.27;;;6.43;;
20972;SDS011;10645;52.370;13.314;2023-03-01T05:05:44;5.73;;;5.33;;
20972;SDS011;10645;52.370;13.314;2023-03-01T05:08:11;4.73;;;4.30;;
20972;SDS011;10645;52.370;13.314;2023-03-01T05:10:43;4.80;;;3.43;;
20972;SDS011;10645;52.370;13.314;2023-03-01T05:13:11;3.03;;;2.80;;
20972;SDS011;10645;52.370;13.314;2023-03-01T05:15:47;1.57;;;1.50;;
20972;SDS011;10645;52.370;13.314;2023-03-01T05:18:20;1.60;;;1.43;;
20972;SDS011;10645;52.370;13.314;2023-03-01T05:20:46;3.93;;;2.83;;
20972;SDS011;10645;52.370;13.314;2023-03-01T05:23:12;2.17;;;1.97;;
20972;SDS011;10645;52.370;13.314;2023-03-01T05:25:39;3.20;;;2.70;;
20972;SDS011;10645;52.370;13.314;2023-03-01T05:28:06;3.70;;;3.50;;
20972;SDS011;10645;52.370;13.314;2023-03-01T05:30:35;3.03;;;2.53;;
20972;SDS011;10645;52.370;13.314;2023-03-01T05:33:01;4.47;;;2.73;;
20972;SDS011;10645;52.370;13.314;2023-03-01T05:35:28;1.37;;;1.37;;
20972;SDS011;10645;52.370;13.314;2023-03-01T05:37:58;2.83;;;2.70;;
20972;SDS011;10645;52.370;13.314;2023-03-01T05:40:24;0.80;;;0.80;;
20972;SDS011;10645;52.370;13.314;2023-03-01T05:42:52;3.13;;;2.93;;
20972;SDS011;10645;52.370;13.314;2023-03-01T05:45:20;3.27;;;3.13;;
20972;SDS011;10645;52.370;13.314;2023-03-01T05:47:48;3.33;;;3.13;;
20972;SDS011;10645;52.370;13.314;2023-03-01T05:50:34;6.83;;;3.87;;
20972;SDS011;10645;52.370;13.314;2023-03-01T05:53:06;3.37;;;3.17;;
20972;SDS011;10645;52.370;13.314;2023-03-01T05:55:34;1.73;;;1.63;;
20972;SDS011;10645;52.370;13.314;2023-03-01T05:58:02;1.83;;;1.73;;
20972;SDS011;10645;52.370;13.314;2023-03-01T06:00:30;3.27;;;2.97;;
20972;SDS011;10645;52.370;13.314;2023-03-01T06:02:57;0.40;;;0.40;;
20972;SDS011;10645;52.370;13.314;2023-03-01T06:05:24;2.00;;;1.97;;
20972;SDS011;10645;52.370;13.314;2023-03-01T06:07:50;2.60;;;2.47;;
20972;SDS011;10645;52.370;13.314;2023-03-01T06:10:17;3.27;;;3.03;;
20972;SDS011;10645;52.370;13.314;2023-03-01T06:12:45;2.20;;;1.80;;
20972;SDS011;10645;52.370;13.314;2023-03-01T06:15:12;1.73;;;1.63;;
20972;SDS011;10645;52.370;13.314;2023-03-01T06:17:40;1.33;;;1.27;;
20972;SDS011;10645;52.370;13.314;2023-03-01T06:20:12;1.07;;;1.07;;
20972;SDS011;10645;52.370;13.314;2023-03-01T06:22:44;4.40;;;2.50;;
20972;SDS011;10645;52.370;13.314;2023-03-01T06:25:12;4.47;;;3.87;;
20972;SDS011;10645;52.370;13.314;2023-03-01T06:27:40;1.70;;;1.57;;
20972;SDS011;10645;52.370;13.314;2023-03-01T06:30:07;3.33;;;3.03;;
20972;SDS011;10645;52.370;13.314;2023-03-01T06:32:36;6.27;;;3.77;;
20972;SDS011;10645;52.370;13.314;2023-03-01T06:35:03;3.53;;;3.23;;
20972;SDS011;10645;52.370;13.314;2023-03-01T06:37:30;16.80;;;3.50;;
20972;SDS011;10645;52.370;13.314;2023-03-01T06:39:56;1.20;;;1.17;;
20972;SDS011;10645;52.370;13.314;2023-03-01T06:42:22;2.63;;;2.43;;
20972;SDS011;10645;52.370;13.314;2023-03-01T06:44:48;2.57;;;2.00;;
20972;SDS011;10645;52.370;13.314;2023-03-01T06:47:14;1.50;;;1.40;;
20972;SDS011;10645;52.370;13.314;2023-03-01T06:49:41;1.13;;;1.07;;
20972;SDS011;10645;52.370;13.314;2023-03-01T06:52:07;1.00;;;1.00;;
20972;SDS011;10645;52.370;13.314;2023-03-01T06:54:33;2.43;;;2.23;;
20972;SDS011;10645;52.370;13.314;2023-03-01T06:56:59;4.97;;;1.57;;
20972;SDS011;10645;52.370;13.314;2023-03-01T06:59:25;3.53;;;3.30;;
20972;SDS011;10645;52.370;13.314;2023-03-01T07:01:51;3.03;;;1.93;;
20972;SDS011;10645;52.370;13.314;2023-03-01T07:04:17;5.40;;;2.67;;
20972;SDS011;10645;52.370;13.314;2023-03-01T07:06:43;4.43;;;4.13;;
20972;SDS011;10645;52.370;13.314;2023-03-01T07:09:09;6.20;;;5.73;;
20972;SDS011;10645;52.370;13.314;2023-03-01T07:11:35;3.03;;;2.80;;
20972;SDS011;10645;52.370;13.314;2023-03-01T07:14:01;1.37;;;1.37;;
20972;SDS011;10645;52.370;13.314;2023-03-01T07:16:28;3.90;;;3.50;;
20972;SDS011;10645;52.370;13.314;2023-03-01T07:18:54;1.03;;;1.03;;
20972;SDS011;10645;52.370;13.314;2023-03-01T07:21:20;2.57;;;2.43;;
20972;SDS011;10645;52.370;13.314;2023-03-01T07:23:47;5.97;;;4.20;;
20972;SDS011;10645;52.370;13.314;2023-03-01T07:26:14;1.93;;;1.83;;
20972;SDS011;10645;52.370;13.314;2023-03-01T07:28:40;3.67;;;3.37;;
20972;SDS011;10645;52.370;13.314;2023-03-01T07:31:06;2.70;;;2.60;;
20972;SDS011;10645;52.370;13.314;2023-03-01T07:33:32;2.03;;;1.93;;
20972;SDS011;10645;52.370;13.314;2023-03-01T07:35:59;2.77;;;1.47;;
20972;SDS011;10645;52.370;13.314;2023-03-01T07:38:27;2.40;;;2.20;;
20972;SDS011;10645;52.370;13.314;2023-03-01T07:40:57;4.17;;;2.87;;
20972;SDS011;10645;52.370;13.314;2023-03-01T07:43:24;4.03;;;2.77;;
20972;SDS011;10645;52.370;13.314;2023-03-01T07:45:50;3.00;;;2.80;;
20972;SDS011;10645;52.370;13.314;2023-03-01T07:48:17;5.60;;;4.47;;
20972;SDS011;10645;52.370;13.314;2023-03-01T07:50:43;2.90;;;2.70;;
20972;SDS011;10645;52.370;13.314;2023-03-01T07:53:09;10.20;;;4.17;;
20972;SDS011;10645;52.370;13.314;2023-03-01T07:55:36;4.77;;;4.23;;
20972;SDS011;10645;52.370;13.314;2023-03-01T07:58:02;5.83;;;4.43;;
20972;SDS011;10645;52.370;13.314;2023-03-01T08:00:29;4.93;;;4.53;;
20972;SDS011;10645;52.370;13.314;2023-03-01T08:02:58;3.20;;;2.93;;
20972;SDS011;10645;52.370;13.314;2023-03-01T08:05:25;5.43;;;4.47;;
20972;SDS011;10645;52.370;13.314;2023-03-01T08:07:51;5.23;;;4.87;;
20972;SDS011;10645;52.370;13.314;2023-03-01T08:10:17;2.43;;;2.23;;
20972;SDS011;10645;52.370;13.314;2023-03-01T08:12:43;5.57;;;4.40;;
20972;SDS011;10645;52.370;13.314;2023-03-01T08:15:10;4.03;;;3.70;;
20972;SDS011;10645;52.370;13.314;2023-03-01T08:17:36;9.63;;;3.60;;
20972;SDS011;10645;52.370;13.314;2023-03-01T08:20:02;3.77;;;3.50;;
20972;SDS011;10645;52.370;13.314;2023-03-01T08:22:32;4.30;;;3.90;;
20972;SDS011;10645;52.370;13.314;2023-03-01T08:24:58;6.33;;;4.80;;
20972;SDS011;10645;52.370;13.314;2023-03-01T08:27:24;3.83;;;3.63;;
20972;SDS011;10645;52.370;13.314;2023-03-01T08:29:50;8.97;;;6.50;;
20972;SDS011;10645;52.370;13.314;2023-03-01T08:32:16;3.40;;;3.10;;
20972;SDS011;10645;52.370;13.314;2023-03-01T08:34:45;4.67;;;4.27;;
20972;SDS011;10645;52.370;13.314;2023-03-01T08:37:12;4.40;;;4.00;;
20972;SDS011;10645;52.370;13.314;2023-03-01T08:39:38;3.13;;;2.90;;
20972;SDS011;10645;52.370;13.314;2023-03-01T08:42:04;4.83;;;3.07;;
20972;SDS011;10645;52.370;13.314;2023-03-01T08:44:30;4.03;;;3.63;;
20972;SDS011;10645;52.370;13.314;2023-03-01T08:46:56;8.57;;;5.57;;
20972;SDS011;10645;52.370;13.314;2023-03-01T08:49:23;3.83;;;3.23;;
20972;SDS011;10645;52.370;13.314;2023-03-01T08:51:49;5.17;;;4.63;;
20972;SDS011;10645;52.370;13.314;2023-03-01T08:54:16;4.13;;;3.37;;
20972;SDS011;10645;52.370;13.314;2023-03-01T08:56:44;3.17;;;2.73;;
20972;SDS011;10645;52.370;13.314;2023-03-01T08:59:11;3.07;;;2.87;;
20972;SDS011;10645;52.370;13.314;2023-03-01T09:01:38;7.47;;;3.43;;
20972;SDS011;10645;52.370;13.314;2023-03-01T09:04:05;4.70;;;3.97;;
20972;SDS011;10645;52.370;13.314;2023-03-01T09:06:32;2.60;;;2.50;;
20972;SDS011;10645;52.370;13.314;2023-03-01T09:08:58;6.00;;;3.47;;
20972;SDS011;10645;52.370;13.314;2023-03-01T09:11:25;2.77;;;2.20;;
20972;SDS011;10645;52.370;13.314;2023-03-01T09:13:51;5.77;;;3.80;;
20972;SDS011;10645;52.370;13.314;2023-03-01T09:16:18;3.70;;;2.47;;
20972;SDS011;10645;52.370;13.314;2023-03-01T09:18:48;2.40;;;2.23;;
20972;SDS011;10645;52.370;13.314;2023-03-01T09:21:15;4.13;;;2.33;;
20972;SDS011;10645;52.370;13.314;2023-03-01T09:23:43;3.33;;;3.10;;
20972;SDS011;10645;52.370;13.314;2023-03-01T09:26:20;4.23;;;2.40;;
20972;SDS011;10645;52.370;13.314;2023-03-01T09:28:48;3.47;;;1.63;;
20972;SDS011;10645;52.370;13.314;2023-03-01T09:31:16;2.40;;;2.13;;
20972;SDS011;10645;52.370;13.314;2023-03-01T09:33:44;3.83;;;2.87;;
20972;SDS011;10645;52.370;13.314;2023-03-01T09:36:15;2.83;;;2.47;;
20972;SDS011;10645;52.370;13.314;2023-03-01T09:38:43;1.97;;;1.87;;
20972;SDS011;10645;52.370;13.314;2023-03-01T09:41:14;2.85;;;2.42;;
20972;SDS011;10645;52.370;13.314;2023-03-01T09:44:03;1.53;;;1.43;;
20972;SDS011;10645;52.370;13.314;2023-03-01T09:46:37;3.28;;;2.30;;
20972;SDS011;10645;52.370;13.314;2023-03-01T09:49:12;2.45;;;1.58;;
20972;SDS011;10645;52.370;13.314;2023-03-01T09:51:43;3.83;;;3.20;;
20972;SDS011;10645;52.370;13.314;2023-03-01T09:54:26;4.75;;;2.70;;
20972;SDS011;10645;52.370;13.314;2023-03-01T09:57:06;3.42;;;2.03;;
20972;SDS011;10645;52.370;13.314;2023-03-01T10:00:03;2.33;;;1.92;;
20972;SDS011;10645;52.370;13.314;2023-03-01T10:05:33;4.30;;;1.48;;
20972;SDS011;10645;52.370;13.314;2023-03-01T10:10:51;3.03;;;2.60;;
20972;SDS011;10645;52.370;13.314;2023-03-01T10:13:23;3.22;;;2.05;;
20972;SDS011;10645;52.370;13.314;2023-03-01T10:16:12;8.32;;;3.33;;
20972;SDS011;10645;52.370;13.314;2023-03-01T10:18:47;1.98;;;1.83;;
20972;SDS011;10645;52.370;13.314;2023-03-01T10:21:20;2.65;;;1.52;;
20972;SDS011;10645;52.370;13.314;2023-03-01T10:23:47;1.48;;;1.38;;
20972;SDS011;10645;52.370;13.314;2023-03-01T10:26:26;1.75;;;1.63;;
20972;SDS011;10645;52.370;13.314;2023-03-01T10:29:11;1.98;;;1.85;;
20972;SDS011;10645;52.370;13.314;2023-03-01T10:31:48;2.05;;;1.90;;
20972;SDS011;10645;52.370;13.314;2023-03-01T10:38:13;2.75;;;1.50;;
20972;SDS011;10645;52.370;13.314;2023-03-01T10:40:54;2.20;;;2.00;;
20972;SDS011;10645;52.370;13.314;2023-03-01T10:43:25;3.55;;;1.73;;
20972;SDS011;10645;52.370;13.314;2023-03-01T10:46:22;3.75;;;2.85;;
20972;SDS011;10645;52.370;13.314;2023-03-01T10:49:04;4.30;;;3.50;;
20972;SDS011;10645;52.370;13.314;2023-03-01T10:51:48;2.92;;;2.72;;
20972;SDS011;10645;52.370;13.314;2023-03-01T10:56:56;4.03;;;1.95;;
20972;SDS011;10645;52.370;13.314;2023-03-01T10:59:34;4.25;;;2.95;;
20972;SDS011;10645;52.370;13.314;2023-03-01T11:07:46;5.97;;;2.13;;
20972;SDS011;10645;52.370;13.314;2023-03-01T11:10:22;2.95;;;2.75;;
20972;SDS011;10645;52.370;13.314;2023-03-01T11:13:05;5.07;;;2.65;;
20972;SDS011;10645;52.370;13.314;2023-03-01T11:15:40;2.00;;;1.88;;
20972;SDS011;10645;52.370;13.314;2023-03-01T11:18:20;3.65;;;2.97;;
20972;SDS011;10645;52.370;13.314;2023-03-01T11:20:48;5.68;;;3.40;;
20972;SDS011;10645;52.370;13.314;2023-03-01T11:23:16;3.03;;;2.10;;
20972;SDS011;10645;52.370;13.314;2023-03-01T11:25:46;2.55;;;2.30;;
20972;SDS011;10645;52.370;13.314;2023-03-01T11:28:17;2.35;;;2.08;;
20972;SDS011;10645;52.370;13.314;2023-03-01T11:30:50;2.30;;;2.10;;
20972;SDS011;10645;52.370;13.314;2023-03-01T11:35:55;6.00;;;2.53;;
20972;SDS011;10645;52.370;13.314;2023-03-01T11:38:27;2.60;;;2.42;;
20972;SDS011;10645;52.370;13.314;2023-03-01T11:43:46;2.97;;;2.38;;
20972;SDS011;10645;52.370;13.314;2023-03-01T12:00:49;3.33;;;1.67;;
20972;SDS011;10645;52.370;13.314;2023-03-01T12:03:11;3.33;;;2.60;;
20972;SDS011;10645;52.370;13.314;2023-03-01T12:06:12;3.42;;;1.83;;
20972;SDS011;10645;52.370;13.314;2023-03-01T12:09:00;2.25;;;2.10;;
20972;SDS011;10645;52.370;13.314;2023-03-01T12:22:58;3.63;;;1.67;;
20972;SDS011;10645;52.370;13.314;2023-03-01T12:28:50;5.07;;;2.20;;
20972;SDS011;10645;52.370;13.314;2023-03-01T12:31:31;5.80;;;2.10;;
20972;SDS011;10645;52.370;13.314;2023-03-01T12:45:27;3.03;;;2.70;;
20972;SDS011;10645;52.370;13.314;2023-03-01T12:48:08;1.98;;;1.77;;
20972;SDS011;10645;52.370;13.314;2023-03-01T12:50:59;4.18;;;3.22;;
20972;SDS011;10645;52.370;13.314;2023-03-01T12:53:29;3.20;;;3.00;;
20972;SDS011;10645;52.370;13.314;2023-03-01T12:56:06;4.25;;;2.80;;
20972;SDS011;10645;52.370;13.314;2023-03-01T12:58:40;2.03;;;1.92;;
20972;SDS011;10645;52.370;13.314;2023-03-01T13:04:02;4.82;;;4.15;;
20972;SDS011;10645;52.370;13.314;2023-03-01T13:06:54;1.75;;;1.65;;
20972;SDS011;10645;52.370;13.314;2023-03-01T13:09:50;2.08;;;1.85;;
20972;SDS011;10645;52.370;13.314;2023-03-01T13:12:42;2.30;;;2.08;;
20972;SDS011;10645;52.370;13.314;2023-03-01T13:15:24;3.40;;;2.92;;
20972;SDS011;10645;52.370;13.314;2023-03-01T13:17:53;3.83;;;2.70;;
20972;SDS011;10645;52.370;13.314;2023-03-01T13:28:46;2.70;;;2.50;;
20972;SDS011;10645;52.370;13.314;2023-03-01T13:33:46;2.90;;;2.13;;
20972;SDS011;10645;52.370;13.314;2023-03-01T13:38:59;1.88;;;1.67;;
20972;SDS011;10645;52.370;13.314;2023-03-01T13:47:04;3.85;;;0.70;;
20972;SDS011;10645;52.370;13.314;2023-03-01T13:49:57;0.73;;;0.73;;
20972;SDS011;10645;52.370;13.314;2023-03-01T13:57:49;4.80;;;1.40;;
20972;SDS011;10645;52.370;13.314;2023-03-01T14:03:27;1.05;;;1.05;;
20972;SDS011;10645;52.370;13.314;2023-03-01T14:08:34;1.73;;;1.13;;
20972;SDS011;10645;52.370;13.314;2023-03-01T14:19:27;0.30;;;0.30;;
20972;SDS011;10645;52.370;13.314;2023-03-01T14:22:03;3.40;;;1.15;;
20972;SDS011;10645;52.370;13.314;2023-03-01T14:24:50;1.50;;;0.95;;
20972;SDS011;10645;52.370;13.314;2023-03-01T14:27:23;1.75;;;0.68;;
20972;SDS011;10645;52.370;13.314;2023-03-01T14:29:56;1.08;;;1.00;;
20972;SDS011;10645;52.370;13.314;2023-03-01T14:32:25;1.35;;;1.23;;
20972;SDS011;10645;52.370;13.314;2023-03-01T14:34:53;3.17;;;0.82;;
20972;SDS011;10645;52.370;13.314;2023-03-01T14:37:22;1.33;;;1.23;;
20972;SDS011;10645;52.370;13.314;2023-03-01T14:39:48;0.28;;;0.28;;
20972;SDS011;10645;52.370;13.314;2023-03-01T14:42:14;0.52;;;0.52;;
20972;SDS011;10645;52.370;13.314;2023-03-01T14:44:42;1.52;;;1.35;;
20972;SDS011;10645;52.370;13.314;2023-03-01T14:49:58;1.23;;;0.93;;
20972;SDS011;10645;52.370;13.314;2023-03-01T14:52:34;0.35;;;0.35;;
20972;SDS011;10645;52.370;13.314;2023-03-01T14:55:07;0.57;;;0.52;;
20972;SDS011;10645;52.370;13.314;2023-03-01T14:57:44;0.50;;;0.50;;
20972;SDS011;10645;52.370;13.314;2023-03-01T15:00:18;1.35;;;0.80;;
20972;SDS011;10645;52.370;13.314;2023-03-01T15:02:50;0.40;;;0.40;;
20972;SDS011;10645;52.370;13.314;2023-03-01T15:05:21;0.80;;;0.80;;
20972;SDS011;10645;52.370;13.314;2023-03-01T15:07:51;0.93;;;0.93;;
20972;SDS011;10645;52.370;13.314;2023-03-01T15:10:36;0.60;;;0.60;;
20972;SDS011;10645;52.370;13.314;2023-03-01T15:16:05;0.43;;;0.43;;
20972;SDS011;10645;52.370;13.314;2023-03-01T15:18:37;1.27;;;1.23;;
20972;SDS011;10645;52.370;13.314;2023-03-01T15:21:14;0.27;;;0.20;;
20972;SDS011;10645;52.370;13.314;2023-03-01T15:23:47;2.27;;;1.60;;
20972;SDS011;10645;52.370;13.314;2023-03-01T15:26:31;0.77;;;0.67;;
20972;SDS011;10645;52.370;13.314;2023-03-01T15:29:03;0.45;;;0.32;;
20972;SDS011;10645;52.370;13.314;2023-03-01T15:31:31;3.13;;;0.77;;
20972;SDS011;10645;52.370;13.314;2023-03-01T15:34:08;1.65;;;0.85;;
20972;SDS011;10645;52.370;13.314;2023-03-01T15:36:39;3.73;;;0.77;;
20972;SDS011;10645;52.370;13.314;2023-03-01T15:42:13;1.47;;;1.37;;
20972;SDS011;10645;52.370;13.314;2023-03-01T15:45:19;2.83;;;1.23;;
20972;SDS011;10645;52.370;13.314;2023-03-01T15:47:48;14.30;;;0.70;;
20972;SDS011;10645;52.370;13.314;2023-03-01T15:50:17;2.27;;;1.00;;
20972;SDS011;10645;52.370;13.314;2023-03-01T15:52:46;0.90;;;0.60;;
20972;SDS011;10645;52.370;13.314;2023-03-01T15:55:23;0.40;;;0.40;;
20972;SDS011;10645;52.370;13.314;2023-03-01T16:00:51;0.53;;;0.53;;
20972;SDS011;10645;52.370;13.314;2023-03-01T16:03:21;3.27;;;0.63;;
20972;SDS011;10645;52.370;13.314;2023-03-01T16:05:48;0.67;;;0.60;;
20972;SDS011;10645;52.370;13.314;2023-03-01T16:08:15;1.23;;;0.67;;
20972;SDS011;10645;52.370;13.314;2023-03-01T16:10:42;0.40;;;0.40;;
20972;SDS011;10645;52.370;13.314;2023-03-01T16:13:11;1.60;;;0.83;;
20972;SDS011;10645;52.370;13.314;2023-03-01T16:15:38;1.10;;;0.87;;
20972;SDS011;10645;52.370;13.314;2023-03-01T16:18:05;0.53;;;0.53;;
20972;SDS011;10645;52.370;13.314;2023-03-01T16:20:33;0.50;;;0.50;;
20972;SDS011;10645;52.370;13.314;2023-03-01T16:23:00;1.80;;;1.33;;
20972;SDS011;10645;52.370;13.314;2023-03-01T16:25:27;1.30;;;0.87;;
20972;SDS011;10645;52.370;13.314;2023-03-01T16:27:54;1.33;;;0.60;;
20972;SDS011;10645;52.370;13.314;2023-03-01T16:30:21;1.50;;;0.83;;
20972;SDS011;10645;52.370;13.314;2023-03-01T16:32:48;0.63;;;0.63;;
20972;SDS011;10645;52.370;13.314;2023-03-01T16:35:16;1.73;;;1.17;;
20972;SDS011;10645;52.370;13.314;2023-03-01T16:37:44;0.30;;;0.10;;
20972;SDS011;10645;52.370;13.314;2023-03-01T16:40:29;0.53;;;0.53;;
20972;SDS011;10645;52.370;13.314;2023-03-01T16:42:56;0.50;;;0.50;;
20972;SDS011;10645;52.370;13.314;2023-03-01T16:45:26;1.50;;;0.83;;
20972;SDS011;10645;52.370;13.314;2023-03-01T16:47:53;1.20;;;0.80;;
20972;SDS011;10645;52.370;13.314;2023-03-01T16:50:19;0.93;;;0.63;;
20972;SDS011;10645;52.370;13.314;2023-03-01T16:52:45;3.93;;;0.97;;
20972;SDS011;10645;52.370;13.314;2023-03-01T16:55:11;0.50;;;0.50;;
20972;SDS011;10645;52.370;13.314;2023-03-01T16:57:38;2.73;;;1.07;;
20972;SDS011;10645;52.370;13.314;2023-03-01T17:00:04;0.43;;;0.43;;
20972;SDS011;10645;52.370;13.314;2023-03-01T17:02:35;0.20;;;0.20;;